createdAt,value
2022-08-25T00:00:13.513Z,28.23
2022-08-25T00:02:40.705Z,28.20
2022-08-25T00:05:18.671Z,28.14
2022-08-25T00:07:45.498Z,28.15
2022-08-25T00:10:12.705Z,28.11
2022-08-25T00:12:39.504Z,28.08
2022-08-25T00:15:07.257Z,28.11
2022-08-25T00:17:34.060Z,28.06
2022-08-25T00:20:00.910Z,28.04
2022-08-25T00:22:27.734Z,28.02
2022-08-25T00:24:54.538Z,27.94
2022-08-25T00:27:21.743Z,27.92
2022-08-25T00:29:48.541Z,27.90
2022-08-25T00:32:15.562Z,27.86
2022-08-25T00:34:42.417Z,27.83
2022-08-25T00:37:10.072Z,27.76
2022-08-25T00:39:38.863Z,27.68
2022-08-25T00:42:11.721Z,27.64
2022-08-25T00:44:43.973Z,27.51
2022-08-25T00:47:11.484Z,27.43
2022-08-25T00:49:58.839Z,27.38
2022-08-25T00:52:36.555Z,27.39
2022-08-25T00:55:18.702Z,27.29
2022-08-25T00:58:02.550Z,27.23
2022-08-25T01:00:39.490Z,27.20
2022-08-25T01:03:07.690Z,27.21
2022-08-25T01:05:35.570Z,27.17
2022-08-25T01:08:03.319Z,27.18
2022-08-25T01:10:38.446Z,27.12
2022-08-25T01:13:23.710Z,27.08
2022-08-25T01:15:56.109Z,27.11
2022-08-25T01:18:24.666Z,27.03
2022-08-25T01:20:55.228Z,27.02
2022-08-25T01:23:24.769Z,26.93
2022-08-25T01:26:15.344Z,26.88
2022-08-25T01:29:04.596Z,26.81
2022-08-25T01:31:32.992Z,26.76
2022-08-25T01:34:00.331Z,26.73
2022-08-25T01:36:29.743Z,26.73
2022-08-25T01:38:56.798Z,26.70
2022-08-25T01:42:06.547Z,26.69
2022-08-25T01:44:36.885Z,26.76
2022-08-25T01:47:06.009Z,26.73
2022-08-25T01:49:33.289Z,26.73
2022-08-25T01:52:11.338Z,26.60
2022-08-25T01:54:38.839Z,26.60
2022-08-25T01:57:06.367Z,26.55
2022-08-25T01:59:33.298Z,26.56
2022-08-25T02:02:00.397Z,26.55
2022-08-25T02:04:32.317Z,26.41
2022-08-25T02:07:01.499Z,26.39
2022-08-25T02:09:28.792Z,26.37
2022-08-25T02:11:56.771Z,26.44
2022-08-25T02:14:23.796Z,26.46
2022-08-25T02:16:53.754Z,26.44
2022-08-25T02:19:24.293Z,26.40
2022-08-25T02:21:51.549Z,26.35
2022-08-25T02:24:18.770Z,26.30
2022-08-25T02:26:46.165Z,26.17
2022-08-25T02:29:13.768Z,26.18
2022-08-25T02:31:41.904Z,26.18
2022-08-25T02:34:10.385Z,26.11
2022-08-25T02:36:39.125Z,26.09
2022-08-25T02:39:08.576Z,26.05
2022-08-25T02:41:35.642Z,26.05
2022-08-25T02:44:04.948Z,26.01
2022-08-25T02:46:32.126Z,26.03
2022-08-25T02:48:59.576Z,25.96
2022-08-25T02:51:31.900Z,25.91
2022-08-25T02:54:02.107Z,25.84
2022-08-25T02:56:31.428Z,25.82
2022-08-25T02:58:59.122Z,25.76
2022-08-25T03:01:28.690Z,25.71
2022-08-25T03:03:56.836Z,25.70
2022-08-25T03:06:24.511Z,25.68
2022-08-25T03:08:53.154Z,25.66
2022-08-25T03:11:21.448Z,25.64
2022-08-25T03:13:51.686Z,25.69
2022-08-25T03:16:20.245Z,25.67
2022-08-25T03:18:48.502Z,25.58
2022-08-25T03:21:16.469Z,25.56
2022-08-25T03:23:45.209Z,25.54
2022-08-25T03:26:30.985Z,25.52
2022-08-25T03:28:58.191Z,25.46
2022-08-25T03:31:27.592Z,25.43
2022-08-25T03:33:55.891Z,25.41
2022-08-25T03:36:23.234Z,25.37
2022-08-25T03:38:50.878Z,25.37
2022-08-25T03:41:29.102Z,25.33
2022-08-25T03:43:57.371Z,25.32
2022-08-25T03:46:47.295Z,25.27
2022-08-25T03:49:20.617Z,25.26
2022-08-25T03:51:52.623Z,25.24
2022-08-25T03:54:25.129Z,25.22
2022-08-25T03:56:52.851Z,25.22
2022-08-25T03:59:20.044Z,25.28
2022-08-25T04:01:52.627Z,25.20
2022-08-25T04:04:21.783Z,25.17
2022-08-25T04:06:48.623Z,25.14
2022-08-25T04:09:15.434Z,25.16
2022-08-25T04:11:42.722Z,25.17
2022-08-25T04:14:09.760Z,25.12
2022-08-25T04:16:43.350Z,25.05
2022-08-25T04:19:12.360Z,25.05
2022-08-25T04:21:41.356Z,24.98
2022-08-25T04:24:11.926Z,24.92
2022-08-25T04:26:49.730Z,24.86
2022-08-25T04:29:23.526Z,24.83
2022-08-25T04:31:52.002Z,24.77
2022-08-25T04:34:31.152Z,24.77
2022-08-25T04:37:05.397Z,24.79
2022-08-25T04:39:32.275Z,24.76
2022-08-25T04:42:00.651Z,24.77
2022-08-25T04:44:29.080Z,24.80
2022-08-25T04:46:56.686Z,24.76
2022-08-25T04:49:23.460Z,24.72
2022-08-25T04:51:50.514Z,24.71
2022-08-25T04:54:21.585Z,24.66
2022-08-25T04:56:54.410Z,24.59
2022-08-25T04:59:29.557Z,24.62
2022-08-25T05:01:58.967Z,24.64
2022-08-25T05:04:28.042Z,24.68
2022-08-25T05:06:57.122Z,24.67
2022-08-25T05:09:25.337Z,24.63
2022-08-25T05:11:53.532Z,24.69
2022-08-25T05:14:25.706Z,24.61
2022-08-25T05:16:54.550Z,24.61
2022-08-25T05:19:23.667Z,24.61
2022-08-25T05:21:51.095Z,24.70
2022-08-25T05:24:19.108Z,24.66
2022-08-25T05:26:46.191Z,24.63
2022-08-25T05:29:13.122Z,24.67
2022-08-25T05:31:44.022Z,24.67
2022-08-25T05:34:12.910Z,24.64
2022-08-25T05:36:43.244Z,24.62
2022-08-25T05:39:11.132Z,24.62
2022-08-25T05:41:38.572Z,24.61
2022-08-25T05:44:05.752Z,24.68
2022-08-25T05:46:33.377Z,24.68
2022-08-25T05:49:00.551Z,24.74
2022-08-25T05:51:27.626Z,24.74
2022-08-25T05:53:54.694Z,24.84
2022-08-25T05:56:21.956Z,24.81
2022-08-25T05:58:50.132Z,24.84
2022-08-25T06:01:45.200Z,24.93
2022-08-25T06:04:16.271Z,24.97
2022-08-25T06:06:43.617Z,24.96
2022-08-25T06:09:10.996Z,25.02
2022-08-25T06:11:40.512Z,25.13
2022-08-25T06:14:09.909Z,25.17
2022-08-25T06:16:38.784Z,25.22
2022-08-25T06:19:07.273Z,25.29
2022-08-25T06:21:34.315Z,25.33
2022-08-25T06:24:01.843Z,25.37
2022-08-25T06:26:28.648Z,25.41
2022-08-25T06:28:55.440Z,25.48
2022-08-25T06:31:22.974Z,25.52
2022-08-25T06:33:50.824Z,25.58
2022-08-25T06:36:19.165Z,25.63
2022-08-25T06:38:47.642Z,25.67
2022-08-25T06:41:16.457Z,25.79
2022-08-25T06:43:48.099Z,25.86
2022-08-25T06:46:20.487Z,25.94
2022-08-25T06:48:48.802Z,26.02
2022-08-25T06:51:19.454Z,26.09
2022-08-25T06:53:48.994Z,26.16
2022-08-25T06:56:21.697Z,26.23
2022-08-25T06:58:50.876Z,26.31
2022-08-25T07:01:25.748Z,26.39
2022-08-25T07:04:00.004Z,26.48
2022-08-25T07:06:31.768Z,26.55
2022-08-25T07:08:59.803Z,26.63
2022-08-25T07:11:26.675Z,26.71
2022-08-25T07:13:54.125Z,26.79
2022-08-25T07:16:21.946Z,26.85
2022-08-25T07:18:49.408Z,26.94
2022-08-25T07:21:18.788Z,27.02
2022-08-25T07:23:47.854Z,27.13
2022-08-25T07:26:37.286Z,27.22
2022-08-25T07:29:11.212Z,27.29
2022-08-25T07:31:38.387Z,27.43
2022-08-25T07:34:25.757Z,27.50
2022-08-25T07:36:55.138Z,27.62
2022-08-25T07:39:23.445Z,27.71
2022-08-25T07:41:51.914Z,27.80
2022-08-25T07:44:22.225Z,27.88
2022-08-25T07:46:51.003Z,28.00
2022-08-25T07:49:23.260Z,28.10
2022-08-25T07:52:05.188Z,28.20
2022-08-25T07:54:35.591Z,28.31
2022-08-25T07:57:07.902Z,28.41
2022-08-25T07:59:39.388Z,28.49
2022-08-25T08:02:18.586Z,28.60
2022-08-25T08:04:49.368Z,28.71
2022-08-25T08:07:41.139Z,28.82
2022-08-25T08:13:02.203Z,29.02
2022-08-25T08:15:30.400Z,29.11
2022-08-25T08:17:59.211Z,29.21
2022-08-25T08:20:27.149Z,29.32
2022-08-25T08:22:54.997Z,29.39
2022-08-25T08:25:26.605Z,29.50
2022-08-25T08:27:56.742Z,29.60
2022-08-25T08:30:26.089Z,29.69
2022-08-25T08:33:11.793Z,29.79
2022-08-25T08:35:40.865Z,29.89
2022-08-25T08:38:14.934Z,30.01
2022-08-25T08:41:23.013Z,30.14
2022-08-25T08:44:02.048Z,30.21
2022-08-25T08:47:17.686Z,30.27
2022-08-25T08:50:03.742Z,30.36
2022-08-25T08:52:48.889Z,30.45
2022-08-25T08:55:42.379Z,30.52
2022-08-25T08:58:30.696Z,30.64
2022-08-25T09:00:59.428Z,30.71
2022-08-25T09:03:47.001Z,30.83
2022-08-25T09:06:37.618Z,30.96
2022-08-25T09:09:08.018Z,31.08
2022-08-25T09:11:53.006Z,31.11
2022-08-25T09:14:57.231Z,31.24
2022-08-25T09:17:56.406Z,31.35
2022-08-25T09:20:46.801Z,31.48
2022-08-25T09:23:47.598Z,31.60
2022-08-25T09:26:36.261Z,31.73
2022-08-25T09:29:16.987Z,31.86
2022-08-25T09:31:44.997Z,31.98
2022-08-25T09:34:21.201Z,32.12
2022-08-25T09:36:50.796Z,32.24
2022-08-25T09:39:20.720Z,32.37
2022-08-25T09:41:52.023Z,32.48
2022-08-25T09:44:25.908Z,32.61
2022-08-25T09:47:02.116Z,32.72
2022-08-25T09:49:44.533Z,32.76
2022-08-25T09:52:35.337Z,32.87
2022-08-25T09:55:32.537Z,32.95
2022-08-25T09:58:00.197Z,32.90
2022-08-25T10:00:33.460Z,32.94
2022-08-25T10:03:24.595Z,33.05
2022-08-25T10:06:15.189Z,33.14
2022-08-25T10:08:44.759Z,33.20
2022-08-25T10:11:31.784Z,33.32
2022-08-25T10:14:27.929Z,33.45
2022-08-25T10:17:29.361Z,33.54
2022-08-25T10:20:11.650Z,33.68
2022-08-25T10:22:41.630Z,33.69
2022-08-25T10:25:13.379Z,33.72
2022-08-25T10:28:24.817Z,33.82
2022-08-25T10:31:24.690Z,33.92
2022-08-25T10:34:09.452Z,34.00
2022-08-25T10:37:09.351Z,34.05
2022-08-25T10:39:55.446Z,34.05
2022-08-25T10:42:53.870Z,34.15
2022-08-25T10:45:45.465Z,34.19
2022-08-25T10:48:50.554Z,34.18
2022-08-25T10:51:51.028Z,34.09
2022-08-25T10:54:45.617Z,34.10
2022-08-25T10:57:49.857Z,34.21
2022-08-25T11:00:23.625Z,34.30
2022-08-25T11:03:35.413Z,34.44
2022-08-25T11:06:15.609Z,34.47
2022-08-25T11:08:56.039Z,34.58
2022-08-25T11:11:45.996Z,34.72
2022-08-25T11:14:31.388Z,34.81
2022-08-25T11:17:27.243Z,34.91
2022-08-25T11:20:05.004Z,34.97
2022-08-25T11:23:06.679Z,35.11
2022-08-25T11:26:01.546Z,35.19
2022-08-25T11:28:39.994Z,35.28
2022-08-25T11:31:11.424Z,35.36
2022-08-25T11:33:39.271Z,35.49
2022-08-25T11:36:35.729Z,35.61
2022-08-25T11:39:32.998Z,35.72
2022-08-25T11:42:38.521Z,35.85
2022-08-25T11:45:16.406Z,35.88
2022-08-25T11:47:49.457Z,35.96
2022-08-25T11:50:55.109Z,36.07
2022-08-25T11:53:30.379Z,36.15
2022-08-25T11:56:05.526Z,36.21
2022-08-25T11:58:44.248Z,36.31
2022-08-25T12:01:39.129Z,36.37
2022-08-25T12:04:34.474Z,36.45
2022-08-25T12:07:13.558Z,36.44
2022-08-25T12:09:55.719Z,36.41
2022-08-25T12:12:57.459Z,36.30
2022-08-25T12:15:42.653Z,36.23
2022-08-25T12:18:11.629Z,36.11
2022-08-25T12:20:53.748Z,36.01
2022-08-25T12:23:44.885Z,35.92
2022-08-25T12:26:41.064Z,35.86
2022-08-25T12:29:31.964Z,35.89
2022-08-25T12:32:33.996Z,35.95
2022-08-25T12:35:40.312Z,36.06
2022-08-25T12:38:19.240Z,36.16
2022-08-25T12:40:46.015Z,36.10
2022-08-25T12:43:37.867Z,36.10
2022-08-25T12:46:22.944Z,36.12
2022-08-25T12:48:58.414Z,36.09
2022-08-25T12:51:48.829Z,36.04
2022-08-25T12:54:40.866Z,35.95
2022-08-25T12:57:42.889Z,35.86
2022-08-25T13:00:18.457Z,35.78
2022-08-25T13:03:24.914Z,35.72
2022-08-25T13:06:24.671Z,35.64
2022-08-25T13:09:38.169Z,35.58
2022-08-25T13:12:21.835Z,35.54
2022-08-25T13:14:57.798Z,35.54
2022-08-25T13:17:33.679Z,35.60
2022-08-25T13:20:26.052Z,35.74
2022-08-25T13:23:00.329Z,35.84
2022-08-25T13:25:32.134Z,35.94
2022-08-25T13:28:04.417Z,36.07
2022-08-25T13:30:36.702Z,36.13
2022-08-25T13:33:22.657Z,36.12
2022-08-25T13:36:14.580Z,36.09
2022-08-25T13:38:45.710Z,36.07
2022-08-25T13:41:29.206Z,36.06
2022-08-25T13:44:00.986Z,36.09
2022-08-25T13:46:29.687Z,36.15
2022-08-25T13:49:06.911Z,36.27
2022-08-25T13:51:37.568Z,36.36
2022-08-25T13:54:08.761Z,36.46
2022-08-25T13:56:42.304Z,36.58
2022-08-25T13:59:27.420Z,36.68
2022-08-25T14:01:56.147Z,36.71
2022-08-25T14:04:51.789Z,36.76
2022-08-25T14:07:22.634Z,36.84
2022-08-25T14:10:05.170Z,36.90
2022-08-25T14:12:41.866Z,36.97
2022-08-25T14:15:17.895Z,37.02
2022-08-25T14:18:04.729Z,37.03
2022-08-25T14:20:34.061Z,37.04
2022-08-25T14:23:12.808Z,37.07
2022-08-25T14:25:43.516Z,37.09
2022-08-25T14:28:15.322Z,37.12
2022-08-25T14:30:55.673Z,37.18
2022-08-25T14:33:29.920Z,37.19
2022-08-25T14:35:59.974Z,37.21
2022-08-25T14:38:27.053Z,37.22
2022-08-25T14:40:54.417Z,37.26
2022-08-25T14:43:24.176Z,37.30
2022-08-25T14:45:59.863Z,37.32
2022-08-25T14:48:35.340Z,37.37
2022-08-25T14:51:03.904Z,37.32
2022-08-25T14:53:30.809Z,37.24
2022-08-25T14:55:59.311Z,37.18
2022-08-25T14:58:32.476Z,37.03
2022-08-25T15:01:03.269Z,36.92
2022-08-25T15:03:36.186Z,36.80
2022-08-25T15:06:04.641Z,36.71
2022-08-25T15:08:51.999Z,36.58
2022-08-25T15:11:18.796Z,36.45
2022-08-25T15:13:49.210Z,36.35
2022-08-25T15:16:25.111Z,36.26
2022-08-25T15:19:06.713Z,36.15
2022-08-25T15:21:35.905Z,36.08
2022-08-25T15:24:05.591Z,35.98
2022-08-25T15:26:42.650Z,35.88
2022-08-25T15:29:10.129Z,35.79
2022-08-25T15:31:37.264Z,35.72
2022-08-25T15:34:04.158Z,35.65
2022-08-25T15:36:34.184Z,35.60
2022-08-25T15:39:03.979Z,35.51
2022-08-25T15:41:31.381Z,35.44
2022-08-25T15:44:00.337Z,35.39
2022-08-25T15:46:30.355Z,35.34
2022-08-25T15:48:59.574Z,35.26
2022-08-25T15:51:29.695Z,35.23
2022-08-25T15:53:57.959Z,35.18
2022-08-25T15:56:26.772Z,35.11
2022-08-25T15:58:55.311Z,35.08
2022-08-25T16:01:27.515Z,35.02
2022-08-25T16:03:57.502Z,34.98
2022-08-25T16:06:26.608Z,34.93
2022-08-25T16:08:54.040Z,34.89
2022-08-25T16:11:25.631Z,34.83
2022-08-25T16:13:54.183Z,34.79
2022-08-25T16:16:26.084Z,34.75
2022-08-25T16:18:53.963Z,34.69
2022-08-25T16:21:29.147Z,34.66
2022-08-25T16:24:04.405Z,34.61
2022-08-25T16:26:36.475Z,34.57
2022-08-25T16:29:06.464Z,34.54
2022-08-25T16:31:33.597Z,34.51
2022-08-25T16:34:01.424Z,34.47
2022-08-25T16:36:29.158Z,34.43
2022-08-25T16:38:57.633Z,34.43
2022-08-25T16:41:34.061Z,34.40
2022-08-25T16:44:07.573Z,34.36
2022-08-25T16:46:38.522Z,34.30
2022-08-25T16:49:08.852Z,34.28
2022-08-25T16:51:39.297Z,34.25
2022-08-25T16:54:26.439Z,34.19
2022-08-25T16:56:54.852Z,34.14
2022-08-25T16:59:23.743Z,34.07
2022-08-25T17:01:52.687Z,34.08
2022-08-25T17:04:20.770Z,34.03
2022-08-25T17:06:54.342Z,34.04
2022-08-25T17:09:22.878Z,34.00
2022-08-25T17:11:56.503Z,33.95
2022-08-25T17:14:23.538Z,33.89
2022-08-25T17:16:54.485Z,33.91
2022-08-25T17:19:22.098Z,33.89
2022-08-25T17:21:52.122Z,33.87
2022-08-25T17:24:19.295Z,33.84
2022-08-25T17:26:49.910Z,33.81
2022-08-25T17:29:19.483Z,33.78
2022-08-25T17:31:48.554Z,33.77
2022-08-25T17:34:16.928Z,33.76
2022-08-25T17:36:48.233Z,33.74
2022-08-25T17:39:18.159Z,33.70
2022-08-25T17:41:45.852Z,33.68
2022-08-25T17:44:13.988Z,33.66
2022-08-25T17:46:47.109Z,33.63
2022-08-25T17:49:15.991Z,33.60
2022-08-25T17:51:42.939Z,33.58
2022-08-25T17:54:10.147Z,33.54
2022-08-25T17:56:37.987Z,33.51
2022-08-25T17:59:04.869Z,33.47
2022-08-25T18:01:40.125Z,33.44
2022-08-25T18:04:16.982Z,33.40
2022-08-25T18:06:45.439Z,33.35
2022-08-25T18:09:12.722Z,33.33
2022-08-25T18:11:39.618Z,33.27
2022-08-25T18:14:06.440Z,33.26
2022-08-25T18:16:33.277Z,33.20
2022-08-25T18:19:01.711Z,33.17
2022-08-25T18:21:30.617Z,33.13
2022-08-25T18:23:58.757Z,33.07
2022-08-25T18:26:26.167Z,33.03
2022-08-25T18:28:53.293Z,33.01
2022-08-25T18:31:20.269Z,32.96
2022-08-25T18:33:47.727Z,32.92
2022-08-25T18:36:20.374Z,32.87
2022-08-25T18:39:06.850Z,32.84
2022-08-25T18:41:40.120Z,32.76
2022-08-25T18:44:08.335Z,32.71
2022-08-25T18:46:37.984Z,32.66
2022-08-25T18:49:05.650Z,32.61
2022-08-25T18:51:33.267Z,32.54
2022-08-25T18:54:01.583Z,32.52
2022-08-25T18:56:28.985Z,32.45
2022-08-25T18:58:57.000Z,32.42
2022-08-25T19:01:24.279Z,32.38
2022-08-25T19:03:51.783Z,32.36
2022-08-25T19:06:20.160Z,32.29
2022-08-25T19:08:48.539Z,32.26
2022-08-25T19:11:16.548Z,32.21
2022-08-25T19:13:44.707Z,32.15
2022-08-25T19:16:20.516Z,32.13
2022-08-25T19:18:50.069Z,32.08
2022-08-25T19:21:22.653Z,32.03
2022-08-25T19:23:51.365Z,32.00
2022-08-25T19:26:20.268Z,31.93
2022-08-25T19:28:49.563Z,31.88
2022-08-25T19:31:19.560Z,31.86
2022-08-25T19:33:49.089Z,31.77
2022-08-25T19:36:18.796Z,31.72
2022-08-25T19:38:52.353Z,31.69
2022-08-25T19:41:21.565Z,31.58
2022-08-25T19:43:56.513Z,31.53
2022-08-25T19:46:35.820Z,31.43
2022-08-25T19:49:09.174Z,31.39
2022-08-25T19:51:44.232Z,31.33
2022-08-25T19:54:18.792Z,31.32
2022-08-25T19:56:54.244Z,31.25
2022-08-25T19:59:42.506Z,31.20
2022-08-25T20:02:15.779Z,31.19
2022-08-25T20:04:49.657Z,31.14
2022-08-25T20:07:23.934Z,31.21
2022-08-25T20:09:52.382Z,31.11
2022-08-25T20:12:20.401Z,31.06
2022-08-25T20:14:49.862Z,31.07
2022-08-25T20:17:24.198Z,31.02
2022-08-25T20:19:57.181Z,30.97
2022-08-25T20:22:27.587Z,30.96
2022-08-25T20:25:01.134Z,30.96
2022-08-25T20:27:37.792Z,30.93
2022-08-25T20:30:10.328Z,30.91
2022-08-25T20:32:37.762Z,30.91
2022-08-25T20:35:09.056Z,30.90
2022-08-25T20:37:37.009Z,30.87
2022-08-25T20:40:06.964Z,30.85
2022-08-25T20:42:34.505Z,30.82
2022-08-25T20:45:01.877Z,30.81
2022-08-25T20:47:28.778Z,30.78
2022-08-25T20:49:58.133Z,30.75
2022-08-25T20:52:25.345Z,30.74
2022-08-25T20:54:53.212Z,30.70
2022-08-25T20:57:25.954Z,30.68
2022-08-25T20:59:54.694Z,30.62
2022-08-25T21:02:23.729Z,30.60
2022-08-25T21:04:51.685Z,30.57
2022-08-25T21:07:21.215Z,30.56
2022-08-25T21:09:51.659Z,30.53
2022-08-25T21:12:18.866Z,30.52
2022-08-25T21:14:45.782Z,30.48
2022-08-25T21:17:15.320Z,30.47
2022-08-25T21:19:46.083Z,30.47
2022-08-25T21:22:12.880Z,30.43
2022-08-25T21:24:39.751Z,30.38
2022-08-25T21:27:07.023Z,30.36
2022-08-25T21:29:34.258Z,30.27
2022-08-25T21:32:02.351Z,30.24
2022-08-25T21:34:31.057Z,30.24
2022-08-25T21:36:59.334Z,30.23
2022-08-25T21:39:28.116Z,30.19
2022-08-25T21:41:58.452Z,30.06
2022-08-25T21:44:27.424Z,30.07
2022-08-25T21:46:54.873Z,30.02
2022-08-25T21:49:23.432Z,29.94
2022-08-25T21:52:02.388Z,29.91
2022-08-25T21:54:31.958Z,29.80
2022-08-25T21:57:05.959Z,29.76
2022-08-25T21:59:40.509Z,29.72
2022-08-25T22:02:11.717Z,29.73
2022-08-25T22:04:39.531Z,29.67
2022-08-25T22:07:08.567Z,29.59
2022-08-25T22:09:36.820Z,29.51
2022-08-25T22:12:05.350Z,29.49
2022-08-25T22:14:32.982Z,29.45
2022-08-25T22:17:00.354Z,29.45
2022-08-25T22:19:27.507Z,29.41
2022-08-25T22:21:56.410Z,29.40
2022-08-25T22:24:27.974Z,29.37
2022-08-25T22:26:55.990Z,29.33
2022-08-25T22:29:25.397Z,29.28
2022-08-25T22:32:00.734Z,29.23
2022-08-25T22:34:32.537Z,29.15
2022-08-25T22:37:01.791Z,29.14
2022-08-25T22:39:32.235Z,29.10
2022-08-25T22:42:01.827Z,29.09
2022-08-25T22:44:29.015Z,28.98
2022-08-25T22:46:56.015Z,29.03
2022-08-25T22:49:23.592Z,29.03
2022-08-25T22:51:50.968Z,29.08
2022-08-25T22:54:18.242Z,29.09
2022-08-25T22:56:45.430Z,29.07
2022-08-25T22:59:14.213Z,29.07
2022-08-25T23:01:45.059Z,29.04
2022-08-25T23:04:13.568Z,29.05
2022-08-25T23:06:40.787Z,29.11
2022-08-25T23:09:10.863Z,29.09
2022-08-25T23:11:39.689Z,29.09
2022-08-25T23:14:10.850Z,29.02
2022-08-25T23:16:43.207Z,28.99
2022-08-25T23:19:14.749Z,28.99
2022-08-25T23:22:02.425Z,28.95
2022-08-25T23:24:30.973Z,28.85
2022-08-25T23:27:04.081Z,28.89
2022-08-25T23:29:34.257Z,28.93
2022-08-25T23:32:02.600Z,28.85
2022-08-25T23:34:29.709Z,28.84
2022-08-25T23:36:56.859Z,28.75
2022-08-25T23:39:23.851Z,28.74
2022-08-25T23:41:51.934Z,28.73
2022-08-25T23:44:21.016Z,28.67
2022-08-25T23:46:50.118Z,28.65
2022-08-25T23:49:19.914Z,28.60
2022-08-25T23:51:51.830Z,28.54
2022-08-25T23:54:21.352Z,28.49
2022-08-25T23:56:51.761Z,28.46
2022-08-25T23:59:24.411Z,28.51
